Terminal Aerodrome Forecast
Issued by NWS Sterling, VA

Home | Current Version | Previous Version | Text Only | Print | Product List | Glossary On
Versions: 1 2 3 4 5 6 7 8 9 10 11 12 13 14 15 16 17
000
FTUS41 KLWX 012300
TAFCHO
TAF
KCHO 012328Z 0200/0224 20007KT P6SM FEW090 SCT250
     FM020100 VRB03KT P6SM FEW090 SCT250
     FM020600 VRB03KT 3SM BR SCT250
     FM021300 VRB03KT P6SM SCT130
     FM021800 22007KT P6SM SCT050=

USA.gov is the U.S. government's official web portal to all federal, state and local government web resources and services.